Time;durP1;ratioP1;P1;durP2;ratioP2;P2;SDS_P1;SDS_P2;PMS_P1;PMS_P2;Temp;Humidity;BMP_temperature;BMP_pressure;BME280_temperature;BME280_humidity;BME280_pressure;Samples;Min_cycle;Max_cycle;Signal;HPM_P1;HPM_P2
2021/03/11 00:02:14;;;;;;;51.55;24.40;;;;;;;5.46;100.00;100273.41;6244764;28;20431;-69
2021/03/11 00:05:16;;;;;;;50.25;25.42;;;;;;;5.37;100.00;100273.78;6246637;28;20079;-69
2021/03/11 00:08:16;;;;;;;53.20;24.30;;;;;;;5.29;100.00;100258.44;6250141;28;20058;-69
2021/03/11 00:11:18;;;;;;;52.03;24.00;;;;;;;5.32;100.00;100258.31;6248981;28;20085;-69
2021/03/11 00:14:19;;;;;;;50.78;24.23;;;;;;;5.38;100.00;100256.38;6250027;28;20041;-68
2021/03/11 00:17:20;;;;;;;50.78;24.00;;;;;;;5.26;100.00;100234.25;6249733;28;20056;-69
2021/03/11 00:20:23;;;;;;;53.33;24.95;;;;;;;5.18;100.00;100238.91;6249669;28;20057;-68
2021/03/11 00:23:24;;;;;;;52.80;24.77;;;;;;;5.18;100.00;100236.31;6265331;28;20041;-69
2021/03/11 00:26:25;;;;;;;56.78;25.75;;;;;;;5.12;100.00;100220.94;6268144;28;20056;-69
2021/03/11 00:29:28;;;;;;;59.50;26.88;;;;;;;5.14;100.00;100212.16;6249357;28;20520;-69
2021/03/11 00:32:29;;;;;;;52.78;24.55;;;;;;;5.15;100.00;100205.19;6248443;28;20056;-69
2021/03/11 00:35:30;;;;;;;52.42;25.88;;;;;;;5.17;100.00;100195.53;6249413;28;20082;-69
2021/03/11 00:38:31;;;;;;;52.70;25.17;;;;;;;5.16;100.00;100201.66;6249181;28;20054;-69
2021/03/11 00:41:32;;;;;;;55.55;25.38;;;;;;;5.01;100.00;100192.72;6249107;28;20102;-69
2021/03/11 00:44:33;;;;;;;59.25;26.60;;;;;;;5.12;100.00;100187.91;6299085;23;20067;-74
2021/03/11 00:47:35;;;;;;;55.85;26.00;;;;;;;5.03;100.00;100183.91;6302315;28;20548;-74
2021/03/11 00:50:36;;;;;;;54.25;26.50;;;;;;;5.07;100.00;100177.69;6323767;28;20051;-74
2021/03/11 00:53:36;;;;;;;55.40;25.63;;;;;;;5.21;100.00;100169.31;6306932;28;20044;-75
2021/03/11 00:56:38;;;;;;;59.10;26.33;;;;;;;5.05;100.00;100160.44;6274119;28;20557;-75
2021/03/11 00:59:39;;;;;;;57.35;25.60;;;;;;;4.98;100.00;100154.63;6273668;28;20493;-76
2021/03/11 01:02:40;;;;;;;57.55;27.42;;;;;;;4.97;100.00;100155.53;6273424;28;20136;-76
2021/03/11 01:05:41;;;;;;;52.03;25.30;;;;;;;5.11;100.00;100135.91;6273622;28;20136;-76
2021/03/11 01:08:42;;;;;;;57.47;25.50;;;;;;;5.05;100.00;100127.44;6273517;28;20060;-76
2021/03/11 01:11:44;;;;;;;50.75;24.48;;;;;;;5.02;100.00;100114.53;6273326;28;20049;-76
2021/03/11 01:14:45;;;;;;;60.15;26.05;;;;;;;4.96;100.00;100093.94;6289235;28;20055;-76
2021/03/11 01:17:45;;;;;;;50.95;25.05;;;;;;;4.94;100.00;100087.09;6298374;28;20053;-76
2021/03/11 01:20:46;;;;;;;52.90;26.05;;;;;;;4.92;100.00;100065.50;6297744;28;20131;-75
2021/03/11 01:23:47;;;;;;;54.63;24.08;;;;;;;5.02;100.00;100061.59;6298008;28;20135;-75
2021/03/11 01:26:49;;;;;;;58.00;26.85;;;;;;;4.95;100.00;100054.94;6297981;28;20048;-76
2021/03/11 01:29:50;;;;;;;57.35;25.75;;;;;;;4.96;100.00;100036.69;6298037;28;20048;-76
2021/03/11 01:32:51;;;;;;;51.03;24.73;;;;;;;4.97;100.00;100021.91;6297428;28;20127;-76
2021/03/11 01:35:51;;;;;;;52.45;25.25;;;;;;;4.96;100.00;100007.19;6297717;28;20094;-76
2021/03/11 01:38:52;;;;;;;55.72;24.48;;;;;;;4.88;100.00;100011.88;6297729;28;20056;-76
2021/03/11 01:41:54;;;;;;;57.75;25.83;;;;;;;4.79;100.00;99976.66;6297204;28;20126;-76
2021/03/11 01:44:55;;;;;;;50.60;23.77;;;;;;;5.05;100.00;99968.59;6297442;28;20055;-76
2021/03/11 01:47:56;;;;;;;53.10;23.58;;;;;;;4.99;100.00;99957.56;6297313;28;20492;-76
2021/03/11 01:50:57;;;;;;;56.42;24.95;;;;;;;5.00;100.00;99952.31;6297222;28;20052;-74
2021/03/11 01:53:58;;;;;;;48.65;23.73;;;;;;;4.90;100.00;99942.34;6297178;28;20055;-76
2021/03/11 01:57:01;;;;;;;50.35;23.60;;;;;;;4.86;100.00;99930.38;6297435;28;20048;-76
2021/03/11 02:00:06;;;;;;;48.00;22.92;;;;;;;4.94;100.00;99917.88;6297064;28;20094;-76
2021/03/11 02:03:06;;;;;;;44.13;20.25;;;;;;;4.95;100.00;99914.34;6296884;28;20052;-74
2021/03/11 02:06:08;;;;;;;43.60;20.77;;;;;;;5.00;100.00;99922.84;6297018;28;20098;-73
2021/03/11 02:09:09;;;;;;;41.50;21.48;;;;;;;5.06;100.00;99928.59;6297202;28;20040;-75
2021/03/11 02:12:21;;;;;;;39.53;20.95;;;;;;;5.02;100.00;99903.63;6296814;28;20049;-75
2021/03/11 02:15:25;;;;;;;41.72;21.90;;;;;;;5.00;100.00;99894.19;6275362;28;20111;-76
2021/03/11 02:18:31;;;;;;;40.75;20.45;;;;;;;5.08;100.00;99879.06;6272083;28;20052;-76
2021/03/11 02:21:39;;;;;;;40.88;21.02;;;;;;;5.10;100.00;99866.81;6271653;28;20505;-76
2021/03/11 02:24:46;;;;;;;46.88;21.73;;;;;;;5.01;100.00;99875.88;6271794;28;20045;-77
2021/03/11 02:28:05;;;;;;;42.13;21.23;;;;;;;5.07;100.00;99854.78;6271377;28;20110;-77
2021/03/11 02:31:07;;;;;;;44.75;20.17;;;;;;;5.06;100.00;99847.88;6271446;28;20410;-76
2021/03/11 02:34:12;;;;;;;48.53;21.98;;;;;;;5.00;100.00;99845.56;6271792;28;20119;-76
2021/03/11 02:37:18;;;;;;;44.83;21.38;;;;;;;5.19;100.00;99810.88;6271530;28;20489;-76
2021/03/11 02:40:23;;;;;;;44.00;19.65;;;;;;;4.96;100.00;99806.72;6271483;28;20053;-76
2021/03/11 02:43:25;;;;;;;48.67;23.58;;;;;;;4.92;100.00;99807.78;6271229;28;20045;-76
2021/03/11 02:46:28;;;;;;;41.00;21.08;;;;;;;5.13;100.00;99798.13;6271288;28;20075;-74
2021/03/11 02:49:30;;;;;;;48.17;21.90;;;;;;;5.06;100.00;99785.38;6271412;28;20417;-74
2021/03/11 02:52:32;;;;;;;45.03;20.77;;;;;;;5.07;100.00;99771.44;6271074;28;20045;-76
2021/03/11 02:55:35;;;;;;;47.10;21.30;;;;;;;5.01;100.00;99776.94;6271259;28;20505;-76
2021/03/11 02:58:39;;;;;;;38.97;19.75;;;;;;;5.16;100.00;99748.50;6271201;28;20064;-76
2021/03/11 03:01:41;;;;;;;40.60;19.05;;;;;;;5.07;100.00;99748.00;6271127;28;20052;-76
2021/03/11 03:04:45;;;;;;;42.28;20.55;;;;;;;5.06;100.00;99729.88;6271060;28;20060;-76
2021/03/11 03:07:49;;;;;;;38.78;19.20;;;;;;;5.12;100.00;99715.72;6271299;28;20052;-76
2021/03/11 03:10:52;;;;;;;39.70;18.77;;;;;;;5.08;100.00;99715.84;6270974;28;20052;-76
2021/03/11 03:13:54;;;;;;;38.58;19.27;;;;;;;5.02;100.00;99703.13;6280120;28;20044;-76
2021/03/11 03:16:55;;;;;;;43.38;19.67;;;;;;;5.05;100.00;99707.34;6295988;28;20055;-75
2021/03/11 03:19:57;;;;;;;42.17;18.73;;;;;;;5.27;100.00;99699.38;6296081;28;20052;-75
2021/03/11 03:23:03;;;;;;;36.50;19.15;;;;;;;5.27;100.00;99695.00;6295584;28;20056;-76
2021/03/11 03:26:04;;;;;;;36.53;18.10;;;;;;;5.24;100.00;99679.50;6295831;28;20045;-76
2021/03/11 03:29:06;;;;;;;37.45;18.42;;;;;;;5.29;100.00;99669.69;6295434;28;20052;-76
2021/03/11 03:32:08;;;;;;;36.10;18.60;;;;;;;5.29;100.00;99663.66;6295454;28;20390;-74
2021/03/11 03:35:10;;;;;;;36.33;19.10;;;;;;;5.23;100.00;99654.38;6295780;28;20098;-76
2021/03/11 03:38:13;;;;;;;35.13;16.92;;;;;;;5.40;100.00;99666.56;6295630;28;20056;-74
2021/03/11 03:41:15;;;;;;;36.50;18.73;;;;;;;5.27;100.00;99662.91;6298289;28;20055;-76
2021/03/11 03:44:20;;;;;;;37.13;19.13;;;;;;;5.32;100.00;99663.50;6300037;28;20048;-76
2021/03/11 03:47:22;;;;;;;35.80;17.92;;;;;;;5.37;100.00;99655.47;6300499;28;20055;-76
2021/03/11 03:50:23;;;;;;;35.20;18.50;;;;;;;5.44;100.00;99655.06;6300171;28;20048;-76
2021/03/11 03:53:28;;;;;;;34.95;17.40;;;;;;;5.38;100.00;99660.59;6299915;28;20413;-76
2021/03/11 03:56:32;;;;;;;38.10;18.13;;;;;;;5.42;100.00;99651.72;6300089;28;20049;-76
2021/03/11 03:59:36;;;;;;;34.22;18.70;;;;;;;5.33;100.00;99652.16;6300310;28;20055;-76
2021/03/11 04:02:40;;;;;;;35.38;17.98;;;;;;;5.50;100.00;99638.31;6299720;28;20040;-76
2021/03/11 04:05:42;;;;;;;35.75;17.77;;;;;;;5.45;100.00;99632.47;6299674;28;20488;-75
2021/03/11 04:08:44;;;;;;;35.72;17.92;;;;;;;5.44;100.00;99630.78;6300020;28;20049;-76
2021/03/11 04:11:46;;;;;;;35.45;16.58;;;;;;;5.51;100.00;99643.44;6299436;28;20052;-76
2021/03/11 04:14:49;;;;;;;32.60;16.42;;;;;;;5.49;100.00;99632.22;6283324;28;20049;-76
2021/03/11 04:17:52;;;;;;;35.60;17.73;;;;;;;5.55;100.00;99629.34;6274690;28;20048;-76
2021/03/11 04:20:54;;;;;;;31.50;16.98;;;;;;;5.48;100.00;99634.91;6274473;28;20052;-76
2021/03/11 04:23:57;;;;;;;31.13;15.82;;;;;;;5.55;100.00;99631.09;6274501;28;20684;-77
2021/03/11 04:27:00;;;;;;;31.48;16.02;;;;;;;5.59;100.00;99622.22;6274753;28;20060;-76
2021/03/11 04:30:02;;;;;;;36.67;16.52;;;;;;;5.63;100.00;99610.69;6274461;28;20140;-76
2021/03/11 04:33:05;;;;;;;30.25;16.00;;;;;;;5.58;100.00;99610.91;6274262;28;20041;-76
2021/03/11 04:36:07;;;;;;;31.30;15.23;;;;;;;5.59;100.00;99611.78;6274376;28;20445;-76
2021/03/11 04:39:09;;;;;;;40.25;17.08;;;;;;;5.52;100.00;99611.25;6274386;28;20045;-76
2021/03/11 04:42:10;;;;;;;34.97;17.63;;;;;;;5.54;100.00;99603.34;6273964;28;20065;-76
2021/03/11 04:45:11;;;;;;;39.72;18.55;;;;;;;5.54;100.00;99605.94;6273888;28;20045;-77
2021/03/11 04:48:14;;;;;;;40.25;18.48;;;;;;;5.77;100.00;99597.81;6274159;28;20056;-76
2021/03/11 04:51:16;;;;;;;35.10;16.45;;;;;;;5.67;100.00;99588.75;6273390;28;20045;-76
2021/03/11 04:54:18;;;;;;;32.70;17.42;;;;;;;5.69;100.00;99573.06;6273948;28;20053;-76
2021/03/11 04:57:19;;;;;;;37.05;16.63;;;;;;;5.67;100.00;99574.88;6273823;28;20057;-77
2021/03/11 05:00:22;;;;;;;37.53;18.40;;;;;;;5.58;100.00;99574.44;6273938;28;20059;-77
2021/03/11 05:03:24;;;;;;;35.85;17.42;;;;;;;5.57;100.00;99567.53;6273192;28;20049;-77
2021/03/11 05:06:25;;;;;;;36.95;18.08;;;;;;;5.74;100.00;99566.69;6273696;28;20422;-77
2021/03/11 05:09:26;;;;;;;37.85;17.17;;;;;;;5.57;100.00;99564.09;6273575;28;20049;-77
2021/03/11 05:12:27;;;;;;;35.22;17.90;;;;;;;5.67;100.00;99541.84;6273517;28;20044;-77
2021/03/11 05:15:28;;;;;;;35.88;18.02;;;;;;;5.59;100.00;99549.25;6295379;28;20110;-77
2021/03/11 05:18:30;;;;;;;39.28;17.60;;;;;;;5.74;100.00;99538.00;6288551;28;20052;-78
2021/03/11 05:21:30;;;;;;;43.03;19.20;;;;;;;5.55;100.00;99539.91;6284313;28;20048;-77
2021/03/11 05:24:31;;;;;;;36.25;17.08;;;;;;;5.56;100.00;99524.16;6283498;28;20501;-77
2021/03/11 05:27:32;;;;;;;36.78;17.63;;;;;;;5.67;100.00;99525.38;6284125;28;20048;-77
2021/03/11 05:30:33;;;;;;;34.78;16.75;;;;;;;5.63;100.00;99535.09;6284035;28;20049;-77
2021/03/11 05:33:35;;;;;;;40.50;17.13;;;;;;;5.56;100.00;99524.16;6283792;28;20048;-77
2021/03/11 05:36:36;;;;;;;33.63;16.48;;;;;;;5.63;100.00;99519.47;6296101;28;20516;-77
2021/03/11 05:39:38;;;;;;;40.72;16.98;;;;;;;5.76;100.00;99504.88;6297864;28;20052;-77
2021/03/11 05:42:40;;;;;;;37.50;16.00;;;;;;;5.81;100.00;99495.06;6297416;28;20045;-77
2021/03/11 05:45:41;;;;;;;34.70;15.43;;;;;;;5.76;100.00;99491.00;6297150;28;20098;-77
2021/03/11 05:48:43;;;;;;;30.50;14.70;;;;;;;5.79;100.00;99488.22;6297572;28;20055;-78
2021/03/11 05:51:45;;;;;;;40.15;15.95;;;;;;;5.81;100.00;99468.13;6297060;28;20052;-78
2021/03/11 05:54:46;;;;;;;34.22;16.42;;;;;;;5.81;100.00;99469.00;6297556;28;20048;-78
2021/03/11 05:57:47;;;;;;;37.85;16.38;;;;;;;5.76;100.00;99475.34;6297134;28;20520;-78
2021/03/11 06:00:48;;;;;;;28.88;15.60;;;;;;;5.84;100.00;99473.19;6297041;28;20048;-79
2021/03/11 06:03:52;;;;;;;30.33;15.77;;;;;;;5.76;100.00;99462.31;6296250;28;20524;-79
2021/03/11 06:06:53;;;;;;;31.42;14.85;;;;;;;5.78;100.00;99455.28;6297233;28;20056;-79
2021/03/11 06:09:55;;;;;;;34.40;15.63;;;;;;;5.78;100.00;99450.06;6296939;28;20114;-79
2021/03/11 06:12:57;;;;;;;31.63;15.77;;;;;;;5.82;100.00;99441.16;6295231;28;20040;-79
2021/03/11 06:16:02;;;;;;;35.30;14.93;;;;;;;5.81;100.00;99447.25;6272200;28;20056;-79
2021/03/11 06:19:04;;;;;;;29.73;14.05;;;;;;;5.91;100.00;99440.66;6271815;28;20057;-78
2021/03/11 06:22:05;;;;;;;34.28;14.43;;;;;;;5.97;100.00;99422.06;6271844;28;20049;-78
2021/03/11 06:25:08;;;;;;;31.33;14.20;;;;;;;5.89;100.00;99418.19;6271719;28;20501;-78
2021/03/11 06:28:09;;;;;;;29.40;14.02;;;;;;;5.90;100.00;99397.22;6271899;28;20509;-78
2021/03/11 06:31:17;;;;;;;28.45;13.13;;;;;;;6.03;100.00;99392.19;6271577;28;20182;-78
2021/03/11 06:34:20;;;;;;;31.42;12.95;;;;;;;6.02;100.00;99398.34;6289993;28;20056;-78
2021/03/11 06:37:35;;;;;;;26.75;13.23;;;;;;;5.96;100.00;99402.16;6288001;28;20474;-78
2021/03/11 06:40:37;;;;;;;26.33;13.63;;;;;;;6.01;100.00;99389.69;6296457;28;20045;-78
2021/03/11 06:43:54;;;;;;;30.08;13.30;;;;;;;6.02;100.00;99400.97;6311780;22;21124;-77
2021/03/11 06:46:59;;;;;;;23.30;12.20;;;;;;;6.11;100.00;99392.63;6245989;28;20056;-76
2021/03/11 06:50:03;;;;;;;25.13;11.23;;;;;;;6.24;100.00;99392.75;6265165;28;20048;-77
2021/03/11 06:53:05;;;;;;;21.67;10.95;;;;;;;6.15;100.00;99386.31;6267478;28;20053;-76
2021/03/11 06:56:18;;;;;;;23.05;10.38;;;;;;;6.17;100.00;99391.41;6253360;28;20083;-77
2021/03/11 06:59:19;;;;;;;21.52;9.43;;;;;;;6.31;100.00;99387.13;6271419;28;20128;-77
2021/03/11 07:02:21;;;;;;;17.80;9.30;;;;;;;6.28;100.00;99361.19;6234372;28;20120;-77
2021/03/11 07:05:24;;;;;;;18.40;9.95;;;;;;;6.42;100.00;99376.03;6222291;28;20042;-77
2021/03/11 07:08:25;;;;;;;17.55;9.43;;;;;;;6.39;100.00;99373.59;6223412;28;20096;-77
2021/03/11 07:11:27;;;;;;;19.20;9.15;;;;;;;6.38;100.00;99377.16;6237897;28;20433;-76
2021/03/11 07:14:28;;;;;;;14.65;8.25;;;;;;;6.54;100.00;99374.47;6247461;28;20079;-75
2021/03/11 07:17:29;;;;;;;15.90;8.50;;;;;;;6.44;100.00;99370.72;6251104;28;20498;-76
2021/03/11 07:20:32;;;;;;;15.07;7.38;;;;;;;6.56;100.00;99365.63;6251437;28;20049;-75
2021/03/11 07:23:43;;;;;;;14.25;8.25;;;;;;;6.41;100.00;99356.09;6250670;28;20042;-76
2021/03/11 07:26:56;;;;;;;14.73;8.13;;;;;;;6.64;100.00;99351.31;6251006;28;20429;-76
2021/03/11 07:30:01;;;;;;;15.35;7.30;;;;;;;6.61;100.00;99353.16;6251291;28;20168;-76
2021/03/11 07:33:03;;;;;;;13.55;6.00;;;;;;;6.63;100.00;99363.47;6251036;28;20046;-77
2021/03/11 07:36:07;;;;;;;12.80;6.95;;;;;;;6.59;100.00;99359.41;6250843;28;20057;-77
2021/03/11 07:39:10;;;;;;;11.75;6.30;;;;;;;6.59;100.00;99334.13;6251170;28;20417;-77
2021/03/11 07:42:11;;;;;;;11.93;6.63;;;;;;;6.85;100.00;99305.59;6250705;28;20465;-76
2021/03/11 07:45:14;;;;;;;12.27;6.07;;;;;;;6.84;100.00;99327.44;6250801;28;20049;-77
2021/03/11 07:48:15;;;;;;;9.57;5.53;;;;;;;6.99;100.00;99329.09;6252367;28;20072;-76
2021/03/11 07:51:18;;;;;;;8.48;5.13;;;;;;;6.94;100.00;99320.72;6235128;28;20065;-76
2021/03/11 07:54:20;;;;;;;11.60;5.30;;;;;;;7.04;100.00;99313.13;6225960;28;20465;-76
2021/03/11 07:57:21;;;;;;;8.55;4.63;;;;;;;7.24;100.00;99306.69;6243797;28;20044;-74
2021/03/11 08:00:25;;;;;;;9.20;4.85;;;;;;;7.21;100.00;99301.66;6256163;28;20502;-72
2021/03/11 08:03:28;;;;;;;7.45;4.90;;;;;;;7.31;100.00;99303.59;6274649;28;20127;-71
2021/03/11 08:06:30;;;;;;;8.13;4.93;;;;;;;7.21;100.00;99299.03;6256592;28;20469;-71
2021/03/11 08:09:35;;;;;;;8.90;5.00;;;;;;;7.43;100.00;99288.91;6250110;28;20053;-72
2021/03/11 08:12:37;;;;;;;10.43;5.00;;;;;;;7.56;100.00;99291.59;6246374;28;20049;-71
2021/03/11 08:15:38;;;;;;;9.85;4.80;;;;;;;7.48;100.00;99301.69;6240119;28;20049;-71
2021/03/11 08:18:40;;;;;;;10.63;4.90;;;;;;;7.54;100.00;99304.75;6250136;28;20514;-71
2021/03/11 08:21:45;;;;;;;7.28;4.03;;;;;;;7.59;100.00;99289.63;6238840;28;20423;-71
2021/03/11 08:24:47;;;;;;;6.88;4.30;;;;;;;7.83;100.00;99292.41;6225389;28;20046;-71
2021/03/11 08:27:48;;;;;;;6.70;4.20;;;;;;;7.85;100.00;99292.28;6224507;28;20057;-72
2021/03/11 08:30:51;;;;;;;7.00;4.25;;;;;;;8.09;100.00;99261.09;6248691;28;20501;-70
2021/03/11 08:33:52;;;;;;;7.03;3.97;;;;;;;8.03;100.00;99277.16;6274376;28;20052;-71
2021/03/11 08:36:54;;;;;;;9.25;4.90;;;;;;;8.13;100.00;99263.38;6273872;28;20524;-71
2021/03/11 08:39:55;;;;;;;7.57;4.85;;;;;;;8.21;100.00;99251.56;6273145;28;20048;-70
2021/03/11 08:42:56;;;;;;;8.65;4.63;;;;;;;8.12;100.00;99259.06;6273172;28;20056;-71
2021/03/11 08:45:57;;;;;;;7.93;4.18;;;;;;;8.29;100.00;99255.31;6267964;28;20398;-71
2021/03/11 08:49:00;;;;;;;9.95;4.32;;;;;;;8.26;100.00;99239.81;6224195;28;20054;-73
2021/03/11 08:52:02;;;;;;;12.38;5.65;;;;;;;8.36;100.00;99233.06;6224489;28;20060;-72
2021/03/11 08:55:32;;;;;;;9.02;4.35;;;;;;;8.28;100.00;99227.50;6224371;28;20050;-73
2021/03/11 08:58:33;;;;;;;6.15;3.80;;;;;;;8.24;100.00;99214.72;6224686;28;20080;-72
2021/03/11 09:01:36;;;;;;;8.05;4.25;;;;;;;8.33;100.00;99235.84;6224037;28;20049;-71
2021/03/11 09:04:40;;;;;;;8.65;4.55;;;;;;;8.28;100.00;99240.56;6229339;28;20103;-71
2021/03/11 09:07:42;;;;;;;7.18;4.00;;;;;;;8.24;100.00;99227.81;6248779;28;20057;-71
2021/03/11 09:10:43;;;;;;;6.45;4.13;;;;;;;8.18;100.00;99231.69;6248609;28;20100;-71
2021/03/11 09:13:44;;;;;;;7.10;4.07;;;;;;;8.00;100.00;99232.91;6248506;28;20103;-71
2021/03/11 09:16:45;;;;;;;6.65;3.88;;;;;;;8.00;100.00;99227.69;6248789;28;20072;-72
2021/03/11 09:19:48;;;;;;;8.88;4.35;;;;;;;8.03;100.00;99217.84;6248595;28;20060;-72
2021/03/11 09:22:51;;;;;;;7.40;4.25;;;;;;;7.97;100.00;99207.78;6248314;28;20053;-72
2021/03/11 09:25:52;;;;;;;6.30;4.10;;;;;;;7.86;100.00;99202.47;6248427;28;20045;-74
2021/03/11 09:28:53;;;;;;;8.80;4.22;;;;;;;7.74;100.00;99204.09;6248707;28;20060;-73
2021/03/11 09:31:54;;;;;;;5.80;3.85;;;;;;;7.80;100.00;99202.84;6248293;28;20085;-75
2021/03/11 09:34:57;;;;;;;6.22;4.38;;;;;;;7.88;100.00;99177.88;6248120;28;20045;-72
2021/03/11 09:38:00;;;;;;;9.18;4.18;;;;;;;7.88;100.00;99179.66;6247286;28;20053;-72
2021/03/11 09:41:03;;;;;;;7.63;4.03;;;;;;;8.07;100.00;99187.06;6247159;28;20564;-71
2021/03/11 09:44:04;;;;;;;6.43;4.20;;;;;;;8.23;100.00;99165.94;6247888;28;20054;-73
2021/03/11 09:47:05;;;;;;;6.40;3.72;;;;;;;8.42;100.00;99155.91;6247958;28;20045;-73
2021/03/11 09:50:07;;;;;;;4.97;3.35;;;;;;;8.61;100.00;99152.81;6248017;28;20529;-73
2021/03/11 09:53:09;;;;;;;6.65;3.50;;;;;;;8.62;100.00;99157.09;6247404;28;20041;-74
2021/03/11 09:56:15;;;;;;;5.40;3.67;;;;;;;8.85;100.00;99158.09;6247717;28;20045;-74
2021/03/11 09:59:17;;;;;;;5.85;3.70;;;;;;;9.00;100.00;99158.78;6247671;28;20052;-73
2021/03/11 10:02:17;;;;;;;7.85;3.92;;;;;;;9.20;100.00;99147.69;6247558;28;20079;-74
2021/03/11 10:05:19;;;;;;;8.93;4.13;;;;;;;9.32;99.87;99140.72;6258227;28;20079;-72
2021/03/11 10:08:33;;;;;;;7.45;4.30;;;;;;;9.44;98.51;99133.69;6272186;28;20501;-72
2021/03/11 10:11:42;;;;;;;9.90;4.63;;;;;;;9.47;94.60;99131.69;6271928;28;20049;-72
2021/03/11 10:14:43;;;;;;;7.05;4.40;;;;;;;9.58;92.91;99129.13;6256420;28;20049;-75
2021/03/11 10:17:46;;;;;;;7.03;4.00;;;;;;;9.58;94.70;99102.03;6247404;28;20060;-74
2021/03/11 10:20:59;;;;;;;9.15;4.50;;;;;;;9.54;92.24;99109.31;6241190;28;20054;-76
2021/03/11 10:24:01;;;;;;;8.57;4.20;;;;;;;9.65;91.38;99121.59;6222588;28;20042;-75
2021/03/11 10:27:03;;;;;;;9.80;4.32;;;;;;;9.70;88.29;99108.16;6222517;28;20052;-77
2021/03/11 10:30:08;;;;;;;11.50;4.28;;;;;;;9.85;89.24;99096.47;6222421;28;20465;-76
2021/03/11 10:33:15;;;;;;;9.77;4.05;;;;;;;9.87;88.16;99084.09;6222248;28;20414;-76
2021/03/11 10:36:18;;;;;;;6.88;4.30;;;;;;;9.95;88.28;99084.34;6251866;28;20049;-74
2021/03/11 10:39:20;;;;;;;11.35;4.20;;;;;;;10.24;85.82;99060.22;6270075;28;20049;-74
2021/03/11 10:42:21;;;;;;;14.05;4.50;;;;;;;10.34;85.13;99100.56;6246857;28;20399;-75
2021/03/11 10:45:24;;;;;;;7.30;3.92;;;;;;;10.40;84.47;99056.28;6244624;28;20053;-75
2021/03/11 10:48:25;;;;;;;14.68;4.75;;;;;;;10.29;85.67;99047.59;6244585;28;20430;-74
2021/03/11 10:51:27;;;;;;;8.32;3.28;;;;;;;10.39;85.08;99027.50;6246408;28;20052;-75
2021/03/11 10:54:30;;;;;;;5.70;3.45;;;;;;;10.38;85.25;99044.22;6260583;28;20055;-71
2021/03/11 10:57:36;;;;;;;7.20;3.75;;;;;;;10.28;84.72;99059.06;6253482;28;20465;-75
2021/03/11 11:00:37;;;;;;;11.45;3.90;;;;;;;10.10;85.45;99049.00;6250295;28;20042;-75
2021/03/11 11:03:38;;;;;;;8.55;4.00;;;;;;;10.03;86.54;99036.47;6245080;28;20041;-74
2021/03/11 11:06:39;;;;;;;9.63;4.22;;;;;;;9.95;87.45;99004.75;6246357;28;20061;-75
2021/03/11 11:09:43;;;;;;;11.50;3.65;;;;;;;10.14;88.47;99010.25;6246669;28;20053;-74
2021/03/11 11:12:44;;;;;;;9.50;4.15;;;;;;;10.16;88.37;99006.50;6246109;28;20060;-75
2021/03/11 11:15:45;;;;;;;7.38;3.67;;;;;;;10.43;86.91;99002.69;6246494;28;20053;-75
2021/03/11 11:18:46;;;;;;;8.57;3.75;;;;;;;10.96;82.27;98994.00;6246243;28;20050;-73
2021/03/11 11:21:47;;;;;;;8.38;3.90;;;;;;;10.83;81.33;98989.75;6232478;28;20046;-73
2021/03/11 11:24:49;;;;;;;9.35;3.70;;;;;;;10.72;81.47;98987.19;6221639;28;20053;-73
2021/03/11 11:27:49;;;;;;;10.05;3.80;;;;;;;10.85;82.61;98952.81;6222110;28;20054;-72
2021/03/11 11:30:50;;;;;;;8.07;3.70;;;;;;;10.59;84.49;98947.13;6221551;28;20056;-73
2021/03/11 11:33:51;;;;;;;9.10;3.53;;;;;;;10.54;83.16;98959.81;6221912;28;20514;-73
2021/03/11 11:36:52;;;;;;;11.48;3.45;;;;;;;10.65;83.67;98951.84;6221807;28;20046;-72
2021/03/11 11:39:54;;;;;;;15.00;3.80;;;;;;;10.92;81.27;98959.25;6221449;28;20064;-73
2021/03/11 11:42:55;;;;;;;9.85;3.42;;;;;;;11.34;77.80;98946.91;6241164;28;20053;-74
2021/03/11 11:45:55;;;;;;;10.52;3.25;;;;;;;11.52;76.94;98938.41;6245860;28;20083;-71
2021/03/11 11:48:56;;;;;;;8.48;3.05;;;;;;;11.38;76.78;98936.97;6246101;28;20080;-72
2021/03/11 11:51:57;;;;;;;12.10;3.33;;;;;;;11.43;76.93;98929.50;6245755;28;20049;-72
2021/03/11 11:54:59;;;;;;;9.60;2.97;;;;;;;11.19;77.51;98932.44;6246099;28;20045;-71
2021/03/11 11:58:00;;;;;;;9.40;2.70;;;;;;;11.11;75.58;98942.75;6245979;28;20046;-77
2021/03/11 12:01:01;;;;;;;9.32;2.97;;;;;;;11.04;77.80;98966.13;6246602;28;20076;-71
2021/03/11 12:04:02;;;;;;;13.32;3.45;;;;;;;11.01;78.67;98949.75;6250379;28;20129;-72
2021/03/11 12:07:03;;;;;;;18.98;2.90;;;;;;;11.20;76.33;98933.28;6250251;28;20053;-72
2021/03/11 12:10:07;;;;;;;13.38;3.10;;;;;;;11.12;75.65;98926.03;6250526;28;20053;-72
2021/03/11 12:13:08;;;;;;;13.10;3.13;;;;;;;11.28;75.04;98921.13;6250045;28;20568;-72
2021/03/11 12:16:09;;;;;;;8.60;2.33;;;;;;;11.47;73.61;98896.72;6250255;28;20052;-71
2021/03/11 12:19:10;;;;;;;12.65;2.92;;;;;;;11.47;73.37;98875.66;6252840;28;20044;-72
2021/03/11 12:22:11;;;;;;;15.00;3.72;;;;;;;11.37;73.54;98896.69;6248160;28;20068;-72
2021/03/11 12:25:13;;;;;;;12.23;2.75;;;;;;;11.32;73.79;98911.19;6270431;28;20052;-72
2021/03/11 12:28:14;;;;;;;10.20;2.53;;;;;;;10.77;80.55;98929.84;6249931;28;20061;-74
2021/03/11 12:31:16;;;;;;;12.63;3.58;;;;;;;10.13;85.84;98925.41;6249603;28;20083;-75
2021/03/11 12:34:17;;;;;;;23.63;4.60;;;;;;;9.69;86.65;98956.97;6239629;28;20396;-72
2021/03/11 12:37:18;;;;;;;25.67;3.92;;;;;;;9.71;85.23;98921.78;6248814;28;20060;-74
2021/03/11 12:40:20;;;;;;;24.48;3.40;;;;;;;9.99;84.30;98948.44;6249425;28;20524;-75
2021/03/11 12:43:21;;;;;;;20.08;3.50;;;;;;;10.47;84.59;98914.81;6248843;28;20045;-75
2021/03/11 12:46:22;;;;;;;24.15;3.63;;;;;;;10.58;75.40;98911.28;6249888;28;20052;-72
2021/03/11 12:49:23;;;;;;;20.33;3.05;;;;;;;10.76;71.51;98915.00;6249233;28;20514;-73
2021/03/11 12:52:24;;;;;;;29.02;4.32;;;;;;;10.99;71.46;98921.00;6249156;28;20434;-73
2021/03/11 12:55:26;;;;;;;18.10;3.45;;;;;;;10.85;72.98;98929.19;6249204;28;20088;-72
2021/03/11 12:58:27;;;;;;;28.60;3.65;;;;;;;10.77;70.57;98940.34;6248472;28;20042;-72
2021/03/11 13:01:28;;;;;;;17.65;2.83;;;;;;;10.85;70.41;98926.56;6241461;28;20053;-75
2021/03/11 13:04:29;;;;;;;18.50;2.78;;;;;;;10.93;68.85;98958.28;6248910;28;20072;-71
2021/03/11 13:07:30;;;;;;;21.10;2.75;;;;;;;10.45;72.26;98985.03;6249199;28;20541;-78
2021/03/11 13:10:32;;;;;;;19.20;2.55;;;;;;;9.94;77.36;98961.94;6248940;28;20418;-76
2021/03/11 13:13:33;;;;;;;17.50;3.28;;;;;;;9.84;77.62;98972.31;6248402;28;20049;-76
2021/03/11 13:16:34;;;;;;;16.95;3.03;;;;;;;9.68;81.33;98978.91;6248716;28;20394;-74
2021/03/11 13:19:35;;;;;;;22.55;3.60;;;;;;;9.53;81.81;98991.41;6248823;28;20195;-73
2021/03/11 13:22:36;;;;;;;17.10;3.35;;;;;;;9.48;81.98;98994.38;6248255;28;20056;-72
2021/03/11 13:25:39;;;;;;;27.48;2.97;;;;;;;9.65;79.26;99025.41;6248576;28;20425;-70
2021/03/11 13:28:40;;;;;;;19.92;3.45;;;;;;;9.91;78.85;98999.75;6248368;28;20049;-71
2021/03/11 13:31:41;;;;;;;23.10;3.45;;;;;;;9.85;78.07;99002.84;6247708;28;20080;-71
2021/03/11 13:34:42;;;;;;;13.68;2.67;;;;;;;9.78;79.28;99012.16;6243892;28;20064;-74
2021/03/11 13:37:43;;;;;;;23.00;3.50;;;;;;;9.39;83.99;99013.44;6248388;28;20414;-74
2021/03/11 13:40:45;;;;;;;16.58;3.45;;;;;;;8.88;86.01;99055.72;6247803;28;20053;-72
2021/03/11 13:43:45;;;;;;;12.02;2.53;;;;;;;8.56;88.40;99050.19;6251358;28;20049;-74
2021/03/11 13:46:47;;;;;;;17.60;2.13;;;;;;;8.51;90.99;99083.72;6249863;28;20053;-75
2021/03/11 13:49:47;;;;;;;16.38;2.83;;;;;;;8.48;92.63;99086.56;6253177;28;20048;-76
2021/03/11 13:52:49;;;;;;;15.40;2.78;;;;;;;8.43;93.29;99094.75;6258434;28;20521;-74
2021/03/11 13:55:51;;;;;;;17.70;3.10;;;;;;;8.43;95.77;99078.19;6247794;28;20050;-76
2021/03/11 13:58:52;;;;;;;22.98;3.55;;;;;;;8.50;95.44;99071.59;6248185;28;20072;-78
2021/03/11 14:01:53;;;;;;;17.35;2.60;;;;;;;8.61;96.16;99072.47;6247607;28;20049;-77
2021/03/11 14:04:54;;;;;;;23.77;3.85;;;;;;;8.68;95.34;99074.69;6247847;28;20312;-77
2021/03/11 14:07:55;;;;;;;20.77;3.50;;;;;;;8.92;94.24;99079.91;6247702;28;20079;-77